createdAt,value
2022-08-21T00:02:35.251Z,15.30
2022-08-21T00:07:36.873Z,18.17
2022-08-21T00:12:38.976Z,17.17
2022-08-21T00:17:40.940Z,18.90
2022-08-21T00:22:43.694Z,17.02
2022-08-21T00:27:45.413Z,18.20
2022-08-21T00:32:46.989Z,14.82
2022-08-21T00:37:48.867Z,16.27
2022-08-21T00:42:53.810Z,16.33
2022-08-21T00:47:55.568Z,15.38
2022-08-21T00:52:58.203Z,12.88
2022-08-21T00:58:02.256Z,14.90
2022-08-21T01:03:09.120Z,15.10
2022-08-21T01:08:11.614Z,18.60
2022-08-21T01:13:16.498Z,16.50
2022-08-21T01:18:18.360Z,15.80
2022-08-21T01:23:20.013Z,19.55
2022-08-21T01:28:23.252Z,19.92
2022-08-21T01:33:25.872Z,14.38
2022-08-21T01:38:27.700Z,14.85
2022-08-21T01:43:39.459Z,20.08
2022-08-21T01:48:43.325Z,16.88
2022-08-21T01:53:45.017Z,15.05
2022-08-21T01:58:48.016Z,18.58
2022-08-21T02:09:54.813Z,14.80
2022-08-21T02:14:57.645Z,13.90
2022-08-21T02:19:59.198Z,14.45
2022-08-21T02:25:01.178Z,16.52
2022-08-21T02:30:04.174Z,14.95
2022-08-21T02:35:08.051Z,17.45
2022-08-21T02:40:10.452Z,16.95
2022-08-21T02:45:13.593Z,13.38
2022-08-21T02:50:21.145Z,13.93
2022-08-21T02:55:26.746Z,15.02
2022-08-21T03:00:30.830Z,12.90
2022-08-21T03:05:35.339Z,16.13
2022-08-21T03:10:42.228Z,14.02
2022-08-21T03:20:46.161Z,13.13
2022-08-21T03:25:49.192Z,12.90
2022-08-21T03:30:53.234Z,16.38
2022-08-21T03:36:07.631Z,17.77
2022-08-21T03:41:10.420Z,16.08
2022-08-21T03:46:14.917Z,13.25
2022-08-21T03:51:16.503Z,18.30
2022-08-21T03:56:18.363Z,19.77
2022-08-21T04:01:20.126Z,18.20
2022-08-21T04:06:22.952Z,17.63
2022-08-21T04:11:25.338Z,17.67
2022-08-21T04:16:27.071Z,17.05
2022-08-21T04:21:29.035Z,16.95
2022-08-21T04:26:31.316Z,15.73
2022-08-21T04:31:34.340Z,16.83
2022-08-21T04:36:36.440Z,16.48
2022-08-21T04:41:38.540Z,19.15
2022-08-21T04:46:40.440Z,18.33
2022-08-21T04:51:42.854Z,22.00
2022-08-21T04:56:52.888Z,19.13
2022-08-21T05:01:56.054Z,13.95
2022-08-21T05:07:03.433Z,20.70
2022-08-21T05:12:05.445Z,12.25
2022-08-21T05:17:07.455Z,8.20
2022-08-21T05:22:09.271Z,7.97
2022-08-21T05:27:11.727Z,10.63
2022-08-21T05:32:15.392Z,7.97
2022-08-21T05:37:17.634Z,8.88
2022-08-21T05:42:22.052Z,7.90
2022-08-21T05:47:24.263Z,7.60
2022-08-21T05:52:28.545Z,7.78
2022-08-21T05:57:30.475Z,8.52
2022-08-21T06:02:32.026Z,7.75
2022-08-21T06:07:33.784Z,8.45
2022-08-21T06:12:35.444Z,6.43
2022-08-21T06:17:37.163Z,6.90
2022-08-21T06:22:38.771Z,7.70
2022-08-21T06:27:40.392Z,11.00
2022-08-21T06:32:42.584Z,8.57
2022-08-21T06:37:44.220Z,7.70
2022-08-21T06:42:45.954Z,8.20
2022-08-21T06:47:49.294Z,8.18
2022-08-21T06:52:58.730Z,10.40
2022-08-21T06:58:00.523Z,8.60
2022-08-21T07:03:03.140Z,9.70
2022-08-21T07:08:05.109Z,6.55
2022-08-21T07:13:07.034Z,11.07
2022-08-21T07:18:08.980Z,9.75
2022-08-21T07:23:33.244Z,6.78
2022-08-21T07:28:35.588Z,7.70
2022-08-21T07:33:38.039Z,5.20
2022-08-21T07:38:40.356Z,7.03
2022-08-21T07:43:46.081Z,7.80
2022-08-21T07:48:48.075Z,7.45
2022-08-21T07:53:52.402Z,8.60
2022-08-21T07:58:54.035Z,7.47
2022-08-21T08:03:56.346Z,6.60
2022-08-21T08:08:57.903Z,8.45
2022-08-21T08:13:59.607Z,5.97
2022-08-21T08:19:01.494Z,5.20
2022-08-21T08:24:19.466Z,3.92
2022-08-21T08:29:22.457Z,6.80
2022-08-21T08:34:25.643Z,4.75
2022-08-21T08:39:29.582Z,7.68
2022-08-21T08:44:31.696Z,5.97
2022-08-21T08:49:41.082Z,7.47
2022-08-21T08:54:49.091Z,4.28
2022-08-21T08:59:53.749Z,4.93
2022-08-21T09:04:56.763Z,6.30
2022-08-21T09:10:18.049Z,4.57
2022-08-21T09:15:58.446Z,5.97
2022-08-21T09:21:24.848Z,5.57
2022-08-21T09:26:50.759Z,10.68
2022-08-21T09:31:52.480Z,5.43
2022-08-21T09:36:54.472Z,8.15
2022-08-21T09:42:01.344Z,6.15
2022-08-21T09:47:03.165Z,5.38
2022-08-21T09:52:16.425Z,6.10
2022-08-21T09:57:29.520Z,4.32
2022-08-21T10:02:36.692Z,5.75
2022-08-21T10:07:39.146Z,4.10
2022-08-21T10:12:55.939Z,4.50
2022-08-21T10:18:26.464Z,5.22
2022-08-21T10:23:31.038Z,4.95
2022-08-21T10:28:47.577Z,4.90
2022-08-21T10:33:52.287Z,3.00
2022-08-21T10:44:47.592Z,5.95
2022-08-21T10:50:08.238Z,4.72
2022-08-21T10:55:15.168Z,4.45
2022-08-21T11:00:21.425Z,7.13
2022-08-21T11:05:25.871Z,4.93
2022-08-21T11:10:37.451Z,5.47
2022-08-21T11:16:06.323Z,4.28
2022-08-21T11:21:27.901Z,4.38
2022-08-21T11:26:42.208Z,3.85
2022-08-21T11:37:12.240Z,5.13
2022-08-21T11:42:31.250Z,5.45
2022-08-21T11:48:28.834Z,5.30
2022-08-21T11:53:43.615Z,4.03
2022-08-21T11:58:54.505Z,3.50
2022-08-21T12:04:05.156Z,4.68
2022-08-21T12:09:26.367Z,2.78
2022-08-21T12:14:48.773Z,4.20
2022-08-21T12:20:02.227Z,3.17
2022-08-21T12:25:12.397Z,10.03
2022-08-21T12:30:29.028Z,4.28
2022-08-21T12:35:39.982Z,3.97
2022-08-21T12:40:51.323Z,3.47
2022-08-21T12:45:53.008Z,5.07
2022-08-21T12:51:12.744Z,5.75
2022-08-21T12:56:19.987Z,4.05
2022-08-21T13:01:37.084Z,4.15
2022-08-21T13:06:46.591Z,4.55
2022-08-21T13:11:49.820Z,4.93
2022-08-21T13:16:59.937Z,4.40
2022-08-21T13:22:02.861Z,5.18
2022-08-21T13:27:28.823Z,3.10
2022-08-21T13:32:33.004Z,3.03
2022-08-21T13:37:36.067Z,5.35
2022-08-21T13:42:41.669Z,3.72
2022-08-21T13:47:46.461Z,3.42
2022-08-21T13:53:04.577Z,2.92
2022-08-21T13:58:07.529Z,3.38
2022-08-21T14:03:11.902Z,5.72
2022-08-21T14:13:44.626Z,5.00
2022-08-21T14:19:03.750Z,4.72
2022-08-21T14:24:15.187Z,3.42
2022-08-21T14:29:25.178Z,3.42
2022-08-21T14:34:34.097Z,4.45
2022-08-21T14:39:40.687Z,4.80
2022-08-21T14:44:45.404Z,6.43
2022-08-21T14:49:47.040Z,5.00
2022-08-21T14:54:48.613Z,5.13
2022-08-21T14:59:50.339Z,3.55
2022-08-21T15:04:52.141Z,6.32
2022-08-21T15:09:53.936Z,4.65
2022-08-21T15:14:55.668Z,3.20
2022-08-21T15:19:57.367Z,4.32
2022-08-21T15:24:58.941Z,6.93
2022-08-21T15:30:00.762Z,3.60
2022-08-21T15:35:02.752Z,5.45
2022-08-21T15:40:07.047Z,4.03
2022-08-21T15:45:10.967Z,5.90
2022-08-21T15:50:13.654Z,6.03
2022-08-21T15:55:15.989Z,3.40
2022-08-21T16:00:24.160Z,2.88
2022-08-21T16:05:25.961Z,5.55
2022-08-21T16:10:30.090Z,3.45
2022-08-21T16:15:32.526Z,2.88
2022-08-21T16:20:34.269Z,3.85
2022-08-21T16:25:39.973Z,3.28
2022-08-21T16:30:44.393Z,4.65
2022-08-21T16:35:47.603Z,2.30
2022-08-21T16:40:49.500Z,3.85
2022-08-21T16:45:51.391Z,4.20
2022-08-21T16:50:53.180Z,5.03
2022-08-21T16:55:55.041Z,4.22
2022-08-21T17:00:58.200Z,4.18
2022-08-21T17:06:00.964Z,6.95
2022-08-21T17:11:05.006Z,4.47
2022-08-21T17:16:06.935Z,2.08
2022-08-21T17:21:08.557Z,4.30
2022-08-21T17:26:11.571Z,2.90
2022-08-21T17:31:14.727Z,4.35
2022-08-21T17:36:18.649Z,2.92
2022-08-21T17:41:21.498Z,3.10
2022-08-21T17:46:29.768Z,5.30
2022-08-21T17:51:31.752Z,2.80
2022-08-21T17:56:37.581Z,3.88
2022-08-21T18:01:42.184Z,3.03
2022-08-21T18:06:44.507Z,2.90
2022-08-21T18:11:46.520Z,3.53
2022-08-21T18:16:49.675Z,3.15
2022-08-21T18:21:55.751Z,3.38
2022-08-21T18:26:57.433Z,2.55
2022-08-21T18:31:59.238Z,3.17
2022-08-21T18:37:02.307Z,4.90
2022-08-21T18:42:09.680Z,3.35
2022-08-21T18:47:18.175Z,3.53
2022-08-21T18:52:20.933Z,3.45
2022-08-21T18:57:28.260Z,5.05
2022-08-21T19:02:30.307Z,2.03
2022-08-21T19:07:32.124Z,2.42
2022-08-21T19:12:34.462Z,2.90
2022-08-21T19:17:37.832Z,4.72
2022-08-21T19:22:40.821Z,4.60
2022-08-21T19:27:43.204Z,7.15
2022-08-21T19:32:47.750Z,4.78
2022-08-21T19:37:49.417Z,4.55
2022-08-21T19:42:54.221Z,6.88
2022-08-21T19:47:56.126Z,5.88
2022-08-21T19:53:00.802Z,4.03
2022-08-21T19:58:04.610Z,4.63
2022-08-21T20:03:07.179Z,4.05
2022-08-21T20:08:20.295Z,4.85
2022-08-21T20:13:23.316Z,4.20
2022-08-21T20:18:26.732Z,2.45
2022-08-21T20:28:51.650Z,6.60
2022-08-21T20:33:53.475Z,3.75
2022-08-21T20:38:56.395Z,4.82
2022-08-21T20:43:59.921Z,5.35
2022-08-21T20:49:02.496Z,4.45
2022-08-21T20:54:35.232Z,6.28
2022-08-21T20:59:58.507Z,5.90
2022-08-21T21:05:05.815Z,5.22
2022-08-21T21:10:24.887Z,3.75
2022-08-21T21:15:33.304Z,5.38
2022-08-21T21:20:45.756Z,5.13
2022-08-21T21:25:57.546Z,4.15
2022-08-21T21:30:59.165Z,3.53
2022-08-21T21:36:16.433Z,6.03
2022-08-21T21:41:35.420Z,11.80
2022-08-21T21:46:50.708Z,5.80
2022-08-21T21:52:33.048Z,4.25
2022-08-21T21:57:58.837Z,5.75
2022-08-21T22:03:16.488Z,4.85
2022-08-21T22:14:03.050Z,4.53
2022-08-21T22:19:26.925Z,6.50
2022-08-21T22:24:32.495Z,5.07
2022-08-21T22:30:03.517Z,3.33
2022-08-21T22:35:23.599Z,8.60
2022-08-21T22:40:32.355Z,2.15
2022-08-21T22:46:08.865Z,4.68
2022-08-21T22:56:59.747Z,5.15
2022-08-21T23:02:07.646Z,3.75
2022-08-21T23:07:33.784Z,4.38
2022-08-21T23:12:43.731Z,5.68
2022-08-21T23:17:55.058Z,4.10
2022-08-21T23:23:27.435Z,4.88
2022-08-21T23:28:41.767Z,6.70
2022-08-21T23:33:51.916Z,3.63
2022-08-21T23:45:31.616Z,4.75
2022-08-21T23:50:48.371Z,4.97
2022-08-21T23:55:55.254Z,3.47
